Time;durP1;ratioP1;P1;durP2;ratioP2;P2;SDS_P1;SDS_P2;PMS_P1;PMS_P2;Temp;Humidity;BMP_temperature;BMP_pressure;BME280_temperature;BME280_humidity;BME280_pressure;Samples;Min_cycle;Max_cycle;Signal;HPM_P1;HPM_P2
2022/01/13 00:02:15;;;;;;;250.23;122.60;;;-0.80;99.90;;;;;;5063850;28;20072;-77
2022/01/13 00:04:43;;;;;;;266.98;128.60;;;-0.90;99.90;;;;;;5073257;23;20056;-74
2022/01/13 00:07:11;;;;;;;291.63;134.27;;;-0.90;99.90;;;;;;5041967;28;20053;-76
2022/01/13 00:09:39;;;;;;;289.48;138.07;;;-1.00;99.90;;;;;;5051100;28;20385;-76
2022/01/13 00:12:09;;;;;;;367.13;158.70;;;-0.90;99.90;;;;;;5041250;28;20172;-76
2022/01/13 00:14:53;;;;;;;245.77;120.95;;;-1.00;99.90;;;;;;5043624;28;20518;-75
2022/01/13 00:17:33;;;;;;;242.68;123.05;;;-1.00;99.90;;;;;;5013001;28;20045;-74
2022/01/13 00:20:27;;;;;;;221.98;109.38;;;-1.10;99.90;;;;;;5044143;28;20122;-74
2022/01/13 00:25:36;;;;;;;169.80;87.20;;;-1.10;99.90;;;;;;5052302;28;20136;-75
2022/01/13 00:28:13;;;;;;;229.35;114.65;;;-1.10;99.90;;;;;;5050866;28;20116;-76
2022/01/13 00:30:41;;;;;;;227.85;116.72;;;-1.00;99.90;;;;;;5008809;28;20145;-73
2022/01/13 00:33:11;;;;;;;208.25;106.40;;;-0.90;99.90;;;;;;5005088;28;20050;-74
2022/01/13 00:35:39;;;;;;;211.02;109.82;;;-0.90;99.90;;;;;;5051776;28;20052;-75
2022/01/13 00:38:07;;;;;;;199.68;102.05;;;-1.00;99.90;;;;;;5048469;28;20446;-73
2022/01/13 00:40:34;;;;;;;198.88;101.97;;;-1.00;99.90;;;;;;4965335;28;1577817;-75
2022/01/13 00:43:02;;;;;;;181.27;92.45;;;-1.00;99.90;;;;;;5000978;28;20283;-76
2022/01/13 00:45:30;;;;;;;139.13;76.38;;;-1.00;99.90;;;;;;5018328;28;20109;-76
2022/01/13 00:47:57;;;;;;;153.25;83.47;;;-1.00;99.90;;;;;;5037667;28;20069;-75
2022/01/13 00:50:26;;;;;;;152.98;81.80;;;-1.10;99.90;;;;;;5038153;28;20041;-75
2022/01/13 00:52:56;;;;;;;164.43;85.47;;;-1.10;99.90;;;;;;5020268;28;20053;-75
2022/01/13 00:55:32;;;;;;;144.13;73.72;;;-1.20;99.90;;;;;;5020759;28;20049;-76
2022/01/13 00:58:00;;;;;;;157.68;85.65;;;-1.30;99.90;;;;;;5023582;28;20121;-75
2022/01/13 01:00:28;;;;;;;172.80;88.20;;;-1.40;99.90;;;;;;5034239;28;20053;-75
2022/01/13 01:02:55;;;;;;;187.05;89.30;;;-1.40;99.90;;;;;;5019478;28;20056;-76
2022/01/13 01:05:23;;;;;;;223.32;104.00;;;-1.40;99.90;;;;;;5025373;28;20038;-75
2022/01/13 01:07:52;;;;;;;204.15;97.47;;;-1.30;99.90;;;;;;5001745;28;20141;-76
2022/01/13 01:10:21;;;;;;;177.05;87.93;;;-1.40;99.90;;;;;;5005607;28;20137;-76
2022/01/13 01:12:48;;;;;;;176.95;86.50;;;-1.40;99.90;;;;;;5008176;28;20072;-77
2022/01/13 01:15:16;;;;;;;172.73;83.25;;;-1.40;99.90;;;;;;5002193;28;20078;-75
2022/01/13 01:17:49;;;;;;;172.10;84.72;;;-1.30;99.90;;;;;;5033540;28;20515;-76
2022/01/13 01:20:17;;;;;;;167.15;82.90;;;-1.30;99.90;;;;;;5048926;28;20051;-75
2022/01/13 01:22:59;;;;;;;175.07;83.43;;;-1.30;99.90;;;;;;5034600;28;20079;-75
2022/01/13 01:25:43;;;;;;;167.68;79.82;;;-1.30;99.90;;;;;;5049111;28;20580;-75
2022/01/13 01:28:17;;;;;;;184.98;90.22;;;-1.30;99.90;;;;;;5038956;28;20042;-74
2022/01/13 01:30:48;;;;;;;177.65;86.95;;;-1.30;99.90;;;;;;5020693;28;20049;-76
2022/01/13 01:33:18;;;;;;;177.48;87.78;;;-1.30;99.90;;;;;;5020497;28;20091;-74
2022/01/13 01:35:45;;;;;;;180.55;91.28;;;-1.30;99.90;;;;;;5038158;28;20052;-75
2022/01/13 01:38:13;;;;;;;171.18;80.50;;;-1.30;99.90;;;;;;5038255;28;20113;-74
2022/01/13 01:40:42;;;;;;;178.23;85.38;;;-1.30;99.90;;;;;;5054769;28;20053;-79
2022/01/13 01:43:09;;;;;;;175.65;85.68;;;-1.30;99.90;;;;;;5084971;28;20032;-76
2022/01/13 01:45:43;;;;;;;176.32;83.80;;;-1.40;99.90;;;;;;5083761;28;20546;-75
2022/01/13 01:48:18;;;;;;;181.07;88.10;;;-1.30;99.90;;;;;;5061624;28;20050;-76
2022/01/13 01:50:54;;;;;;;166.57;79.18;;;-1.30;99.90;;;;;;5028840;28;20401;-76
2022/01/13 01:53:23;;;;;;;173.80;85.82;;;-1.40;99.90;;;;;;5065136;28;20102;-74
2022/01/13 01:55:55;;;;;;;184.90;86.80;;;-1.40;99.90;;;;;;5070925;28;20047;-74
2022/01/13 01:58:25;;;;;;;169.70;83.80;;;-1.40;99.90;;;;;;5020171;28;20544;-75
2022/01/13 02:00:53;;;;;;;170.15;84.15;;;-1.40;99.90;;;;;;5013196;28;20049;-76
2022/01/13 02:03:24;;;;;;;197.98;91.63;;;-1.50;99.90;;;;;;5028147;28;20062;-74
2022/01/13 02:05:52;;;;;;;187.57;90.00;;;-1.40;99.90;;;;;;5030683;28;20105;-76
2022/01/13 02:08:20;;;;;;;188.18;89.63;;;-1.50;99.90;;;;;;5026889;28;20080;-75
2022/01/13 02:10:47;;;;;;;165.70;85.68;;;-1.50;99.90;;;;;;5052638;28;20041;-77
2022/01/13 02:13:22;;;;;;;168.32;85.65;;;-1.50;99.90;;;;;;5032712;28;20121;-76
2022/01/13 02:16:01;;;;;;;181.27;89.75;;;-1.50;99.90;;;;;;5020534;28;20041;-76
2022/01/13 02:18:31;;;;;;;166.75;84.93;;;-1.70;99.90;;;;;;5052298;28;20052;-77
2022/01/13 02:21:01;;;;;;;171.13;88.80;;;-1.80;99.90;;;;;;5034796;28;20046;-76
2022/01/13 02:23:48;;;;;;;173.05;89.93;;;-1.90;99.90;;;;;;5028574;28;20054;-75
2022/01/13 02:26:15;;;;;;;;;;;-2.10;99.90;;;;;;5022602;28;20132;-77
2022/01/13 02:28:44;;;;;;;180.73;100.47;;;-2.20;99.90;;;;;;5040149;28;19931;-76
2022/01/13 02:31:12;;;;;;;191.32;101.15;;;-2.30;99.90;;;;;;5021590;28;20132;-74
2022/01/13 02:33:40;;;;;;;171.93;95.43;;;-2.40;99.90;;;;;;5019425;28;20045;-80
2022/01/13 02:36:10;;;;;;;192.85;100.55;;;-2.40;99.90;;;;;;5035255;28;20519;-80
2022/01/13 02:38:38;;;;;;;182.13;100.10;;;-2.40;99.90;;;;;;5019479;28;20132;-81
2022/01/13 02:41:05;;;;;;;185.00;101.28;;;-2.50;99.90;;;;;;5019542;28;20080;-83
2022/01/13 02:43:34;;;;;;;185.95;101.80;;;-2.60;99.90;;;;;;5019307;28;20053;-81
2022/01/13 02:46:17;;;;;;;184.50;103.05;;;-2.70;99.90;;;;;;5036920;28;20053;-80
2022/01/13 02:48:46;;;;;;;174.88;97.07;;;-2.70;99.90;;;;;;5036787;28;20054;-81
2022/01/13 02:51:15;;;;;;;183.05;101.68;;;-2.80;99.90;;;;;;5019099;28;20500;-83
2022/01/13 02:53:42;;;;;;;174.13;96.97;;;-2.80;99.90;;;;;;5035836;28;20045;-81
2022/01/13 02:56:10;;;;;;;178.38;97.60;;;-2.90;99.90;;;;;;5017696;28;20477;-82
2022/01/13 02:58:37;;;;;;;173.88;95.47;;;-2.90;99.90;;;;;;5018768;28;20050;-81
2022/01/13 03:01:06;;;;;;;175.60;97.00;;;-3.00;99.90;;;;;;5036971;28;20507;-83
2022/01/13 03:03:35;;;;;;;166.98;92.55;;;-3.00;99.90;;;;;;5036615;28;20120;-82
2022/01/13 03:06:07;;;;;;;171.98;95.13;;;-3.10;99.90;;;;;;5018289;28;20144;-82
2022/01/13 03:08:36;;;;;;;176.23;95.80;;;-3.20;99.90;;;;;;5018095;28;20444;-80
2022/01/13 03:11:04;;;;;;;199.48;106.10;;;-3.30;99.90;;;;;;5015701;28;20048;-82
2022/01/13 03:13:32;;;;;;;197.13;104.82;;;-3.40;99.90;;;;;;5017700;28;20381;-83
2022/01/13 03:16:00;;;;;;;170.15;93.43;;;-3.50;99.90;;;;;;5018479;28;20049;-83
2022/01/13 03:18:27;;;;;;;168.88;96.22;;;-3.50;99.90;;;;;;5036346;28;20556;-82
2022/01/13 03:20:55;;;;;;;170.40;93.78;;;-3.40;99.90;;;;;;5036807;28;20124;-83
2022/01/13 03:23:22;;;;;;;156.40;86.78;;;-3.40;99.90;;;;;;5025491;28;20071;-83
2022/01/13 03:25:51;;;;;;;150.30;81.97;;;-3.30;99.90;;;;;;5041255;28;20041;-84
2022/01/13 03:28:28;;;;;;;147.43;81.28;;;-3.30;99.90;;;;;;5018412;28;20045;-83
2022/01/13 03:30:57;;;;;;;141.15;78.53;;;-3.30;99.90;;;;;;5035882;28;20053;-83
2022/01/13 03:33:25;;;;;;;143.30;79.78;;;-3.30;99.90;;;;;;5018258;28;20459;-82
2022/01/13 03:35:52;;;;;;;139.57;77.93;;;-3.30;99.90;;;;;;5035424;28;20041;-82
2022/01/13 03:38:21;;;;;;;146.50;81.72;;;-3.30;99.90;;;;;;5035778;28;20108;-81
2022/01/13 03:40:50;;;;;;;135.57;77.28;;;-3.50;99.90;;;;;;5017376;28;20385;-82
2022/01/13 03:43:17;;;;;;;155.32;85.68;;;-3.50;99.90;;;;;;5014846;28;20077;-84
2022/01/13 03:45:46;;;;;;;139.02;78.03;;;-3.50;99.90;;;;;;5017316;28;20038;-83
2022/01/13 03:48:13;;;;;;;151.30;80.43;;;-3.60;99.90;;;;;;5005794;28;20045;-84
2022/01/13 03:50:41;;;;;;;140.45;76.68;;;-3.50;99.90;;;;;;5036527;28;20069;-84
2022/01/13 03:53:47;;;;;;;158.38;83.20;;;-3.40;99.90;;;;;;5035920;28;20042;-82
2022/01/13 03:57:02;;;;;;;141.63;74.45;;;-3.50;99.90;;;;;;5004004;28;20061;-82
2022/01/13 04:00:14;;;;;;;113.00;60.38;;;-3.50;99.90;;;;;;5025167;28;20048;-84
2022/01/13 04:02:42;;;;;;;145.98;83.28;;;-3.50;99.90;;;;;;5039146;28;20107;-81
2022/01/13 04:05:10;;;;;;;157.60;96.90;;;-3.50;99.90;;;;;;5034923;28;20100;-82
2022/01/13 04:07:38;;;;;;;104.72;58.65;;;-3.50;99.90;;;;;;5016904;28;20041;-81
2022/01/13 04:10:29;;;;;;;139.23;75.32;;;-3.50;99.90;;;;;;5036372;28;20055;-83
2022/01/13 04:12:59;;;;;;;113.32;60.78;;;-3.50;99.90;;;;;;5019716;28;20049;-84
2022/01/13 04:15:29;;;;;;;94.93;51.90;;;-3.40;99.90;;;;;;5036156;28;20045;-84
2022/01/13 04:17:58;;;;;;;110.95;58.55;;;-3.50;99.90;;;;;;5020803;28;20057;-84
2022/01/13 04:20:25;;;;;;;109.05;58.10;;;-3.50;99.90;;;;;;5037923;28;20076;-84
2022/01/13 04:22:53;;;;;;;125.32;62.15;;;-3.50;99.90;;;;;;5025603;28;20045;-84
2022/01/13 04:25:22;;;;;;;102.55;54.58;;;-3.40;99.90;;;;;;5032995;28;20045;-83
2022/01/13 04:27:51;;;;;;;117.65;64.00;;;-3.40;99.90;;;;;;5049664;28;20093;-84
2022/01/13 04:33:05;;;;;;;110.32;62.47;;;-3.40;99.90;;;;;;5043632;28;20111;-84
2022/01/13 04:35:32;;;;;;;117.30;65.07;;;-3.50;99.90;;;;;;5034329;28;20045;-83
2022/01/13 04:38:00;;;;;;;113.78;61.50;;;-3.50;99.90;;;;;;5017171;28;20042;-82
2022/01/13 04:40:28;;;;;;;101.07;53.35;;;-3.40;99.90;;;;;;5034416;28;20037;-81
2022/01/13 04:42:56;;;;;;;97.20;53.60;;;-3.50;99.90;;;;;;5034884;28;20060;-80
2022/01/13 04:45:26;;;;;;;115.65;61.92;;;-3.50;99.90;;;;;;5016836;28;20053;-82
2022/01/13 04:47:56;;;;;;;157.77;74.65;;;-3.40;99.90;;;;;;5025947;28;20547;-83
2022/01/13 04:50:25;;;;;;;163.68;80.78;;;-3.50;99.90;;;;;;5046876;28;20037;-84
2022/01/13 04:52:52;;;;;;;205.73;98.18;;;-3.60;99.90;;;;;;5040961;28;20080;-82
2022/01/13 04:55:26;;;;;;;229.95;106.97;;;-3.60;99.90;;;;;;5038694;28;20048;-81
2022/01/13 04:57:55;;;;;;;181.57;89.85;;;-3.60;99.90;;;;;;5033575;28;20037;-80
2022/01/13 05:00:25;;;;;;;177.85;90.60;;;-3.50;99.90;;;;;;5034736;28;20472;-82
2022/01/13 05:02:54;;;;;;;181.25;93.80;;;-3.50;99.90;;;;;;5034992;28;20132;-82
2022/01/13 05:05:21;;;;;;;184.02;93.75;;;-3.40;99.90;;;;;;5035708;28;20049;-81
2022/01/13 05:07:49;;;;;;;180.55;96.15;;;-3.40;99.90;;;;;;5016628;28;20048;-82
2022/01/13 05:10:17;;;;;;;181.68;92.93;;;-3.40;99.90;;;;;;5016727;28;20059;-81
2022/01/13 05:12:46;;;;;;;189.55;95.80;;;-3.50;99.90;;;;;;5034825;28;20472;-82
2022/01/13 05:15:19;;;;;;;186.93;94.20;;;-3.50;99.90;;;;;;5035177;28;20120;-83
2022/01/13 05:18:04;;;;;;;175.50;88.18;;;-3.60;99.90;;;;;;5017756;28;20461;-81
2022/01/13 05:20:47;;;;;;;194.15;92.45;;;-3.60;99.90;;;;;;5039251;28;20404;-83
2022/01/13 05:23:15;;;;;;;197.02;94.75;;;-3.70;99.90;;;;;;5038568;28;20053;-82
2022/01/13 05:25:44;;;;;;;228.70;110.70;;;-3.70;99.90;;;;;;5018981;28;20538;-84
2022/01/13 05:28:12;;;;;;;215.23;108.22;;;-3.70;99.90;;;;;;5038113;28;20041;-82
2022/01/13 05:30:40;;;;;;;223.73;112.25;;;-3.80;99.90;;;;;;5021150;28;20504;-80
2022/01/13 05:33:08;;;;;;;202.35;101.38;;;-3.80;99.90;;;;;;5031432;28;20121;-82
2022/01/13 05:35:37;;;;;;;204.10;102.70;;;-3.80;99.90;;;;;;5025279;28;20057;-83
2022/01/13 05:38:06;;;;;;;203.80;103.85;;;-3.90;99.90;;;;;;5023965;28;20040;-82
2022/01/13 05:40:34;;;;;;;223.80;109.55;;;-3.90;99.90;;;;;;5020938;28;20049;-82
2022/01/13 05:43:02;;;;;;;231.07;111.00;;;-3.80;99.90;;;;;;5022743;28;20116;-81
2022/01/13 05:45:32;;;;;;;221.05;110.03;;;-3.80;99.90;;;;;;5048739;28;20397;-82
2022/01/13 05:48:01;;;;;;;277.10;136.10;;;-3.80;99.90;;;;;;5052654;28;20361;-82
2022/01/13 05:50:30;;;;;;;297.80;140.70;;;-3.80;99.90;;;;;;5057784;28;20045;-82
2022/01/13 05:52:59;;;;;;;226.80;112.13;;;-3.80;99.90;;;;;;5060477;28;20089;-82
2022/01/13 05:55:27;;;;;;;271.35;127.57;;;-3.80;99.90;;;;;;5059744;28;20022;-83
2022/01/13 05:57:55;;;;;;;202.45;100.13;;;-3.70;99.90;;;;;;5059926;28;20049;-80
2022/01/13 06:00:25;;;;;;;212.65;107.72;;;-3.60;99.90;;;;;;5046615;28;20124;-82
2022/01/13 06:05:30;;;;;;;280.23;133.90;;;-3.40;99.90;;;;;;5014115;28;20070;-79
2022/01/13 06:07:59;;;;;;;279.58;132.93;;;-3.30;99.90;;;;;;5000309;28;20042;-79
2022/01/13 06:10:30;;;;;;;247.40;123.07;;;-3.40;99.90;;;;;;5001247;28;20507;-79
2022/01/13 06:13:03;;;;;;;291.30;143.27;;;-3.40;99.90;;;;;;4998974;28;20043;-78
2022/01/13 06:15:33;;;;;;;259.65;129.18;;;-3.30;99.90;;;;;;4999277;28;20046;-80
2022/01/13 06:20:47;;;;;;;275.95;138.05;;;-3.50;99.90;;;;;;4997365;28;20070;-79
2022/01/13 06:23:20;;;;;;;248.25;126.80;;;-3.50;99.90;;;;;;4998700;28;20100;-79
2022/01/13 06:25:49;;;;;;;240.40;120.47;;;-3.50;99.90;;;;;;4999566;28;20115;-79
2022/01/13 06:28:18;;;;;;;221.80;114.85;;;-3.40;99.90;;;;;;5000048;28;20088;-79
2022/01/13 06:30:46;;;;;;;256.42;126.15;;;-3.30;99.90;;;;;;4998873;28;20101;-80
2022/01/13 06:33:13;;;;;;;232.82;117.63;;;-3.30;99.90;;;;;;4996632;28;20548;-82
2022/01/13 06:35:41;;;;;;;249.75;120.75;;;-3.20;99.90;;;;;;4998732;28;20497;-82
2022/01/13 06:38:09;;;;;;;298.92;134.80;;;-3.20;99.90;;;;;;5002313;28;20038;-82
2022/01/13 06:40:38;;;;;;;294.20;139.90;;;-3.20;99.90;;;;;;5028157;28;20093;-79
2022/01/13 06:43:05;;;;;;;309.15;141.40;;;-3.20;99.90;;;;;;5015841;28;20038;-83
2022/01/13 06:45:33;;;;;;;280.13;131.23;;;-3.20;99.90;;;;;;5018117;28;20068;-81
2022/01/13 06:48:00;;;;;;;296.92;134.27;;;-3.10;99.90;;;;;;5016478;28;20026;-79
2022/01/13 06:50:28;;;;;;;260.77;120.85;;;-3.00;99.90;;;;;;5010713;28;20054;-81
2022/01/13 06:52:56;;;;;;;226.27;108.72;;;-3.00;99.90;;;;;;4988549;28;20052;-81
2022/01/13 06:55:24;;;;;;;228.18;107.15;;;-2.90;99.90;;;;;;5001529;28;20060;-81
2022/01/13 06:57:53;;;;;;;222.75;105.30;;;-2.90;99.90;;;;;;4999660;28;20093;-80
2022/01/13 07:00:21;;;;;;;216.10;106.80;;;-3.00;99.90;;;;;;5000878;28;20038;-81
2022/01/13 07:02:49;;;;;;;267.80;129.23;;;-3.00;99.90;;;;;;5000534;28;20469;-79
2022/01/13 07:05:17;;;;;;;254.18;121.55;;;-2.90;99.90;;;;;;5001214;28;20073;-80
2022/01/13 07:07:45;;;;;;;305.27;139.82;;;-3.00;99.90;;;;;;4997936;28;20042;-81
2022/01/13 07:10:14;;;;;;;321.02;149.75;;;-3.10;99.90;;;;;;4998926;28;20038;-79
2022/01/13 07:12:42;;;;;;;330.77;147.20;;;-3.20;99.90;;;;;;5000485;28;20038;-80
2022/01/13 07:15:13;;;;;;;389.52;185.45;;;-3.30;99.90;;;;;;4999772;28;20050;-80
2022/01/13 07:17:41;;;;;;;422.48;196.27;;;-3.20;99.90;;;;;;4995435;28;20050;-80
2022/01/13 07:20:10;;;;;;;386.48;180.43;;;-3.20;99.90;;;;;;5001835;28;20128;-79
2022/01/13 07:22:38;;;;;;;333.60;151.13;;;-3.30;99.90;;;;;;5002195;28;20046;-80
2022/01/13 07:25:06;;;;;;;342.33;156.15;;;-3.30;99.90;;;;;;5001053;28;20038;-80
2022/01/13 07:27:34;;;;;;;334.25;153.07;;;-3.40;99.90;;;;;;5015335;28;20053;-80
2022/01/13 07:30:01;;;;;;;352.48;162.93;;;-3.30;99.90;;;;;;5000002;28;20145;-79
2022/01/13 07:32:30;;;;;;;331.58;154.07;;;-3.30;99.90;;;;;;4999282;28;20540;-80
2022/01/13 07:34:57;;;;;;;297.00;143.13;;;-3.20;99.90;;;;;;5000076;28;20161;-79
2022/01/13 07:37:25;;;;;;;361.60;173.20;;;-3.10;99.90;;;;;;4998816;28;20052;-80
2022/01/13 07:39:53;;;;;;;381.00;184.93;;;-3.00;99.90;;;;;;4999568;28;20133;-81
2022/01/13 07:42:25;;;;;;;375.33;190.63;;;-2.80;99.90;;;;;;4999856;28;20046;-79
2022/01/13 07:44:53;;;;;;;380.80;195.43;;;-2.80;99.90;;;;;;4998757;28;20046;-78
2022/01/13 07:47:21;;;;;;;421.83;215.05;;;-2.70;99.90;;;;;;4998455;28;20110;-79
2022/01/13 07:49:50;;;;;;;368.58;178.27;;;-2.50;99.90;;;;;;4998730;28;20046;-80
2022/01/13 07:52:17;;;;;;;350.92;175.07;;;-2.30;99.90;;;;;;5004750;28;20046;-80
2022/01/13 07:54:45;;;;;;;308.48;150.80;;;-2.20;99.90;;;;;;5023203;28;20066;-78
2022/01/13 07:57:12;;;;;;;363.40;171.15;;;-2.20;99.90;;;;;;5006890;28;20060;-81
2022/01/13 07:59:39;;;;;;;358.88;167.10;;;-2.10;99.90;;;;;;5007002;28;20062;-80
2022/01/13 08:02:07;;;;;;;307.48;149.27;;;-2.00;99.90;;;;;;5003444;28;20523;-80
2022/01/13 08:04:34;;;;;;;306.67;149.30;;;-2.00;99.90;;;;;;4998744;28;20528;-81
2022/01/13 08:07:04;;;;;;;309.75;153.13;;;-1.90;99.90;;;;;;5014892;28;20109;-79
2022/01/13 08:09:31;;;;;;;249.30;126.60;;;-1.90;99.90;;;;;;4995293;28;20074;-79
2022/01/13 08:11:58;;;;;;;269.52;136.23;;;-1.80;99.90;;;;;;4998411;28;20129;-81
2022/01/13 08:14:26;;;;;;;307.17;153.35;;;-1.70;99.90;;;;;;4997694;28;20038;-81
2022/01/13 08:16:57;;;;;;;301.10;150.20;;;-1.60;99.90;;;;;;4998254;28;20060;-81
2022/01/13 08:19:45;;;;;;;320.70;161.07;;;-1.60;99.90;;;;;;4997956;28;20042;-78
2022/01/13 08:22:14;;;;;;;325.67;160.68;;;-1.60;99.90;;;;;;4997997;28;20046;-80
2022/01/13 08:24:42;;;;;;;315.58;158.32;;;-1.60;99.90;;;;;;4997494;28;20099;-79
2022/01/13 08:27:10;;;;;;;323.63;160.57;;;-1.60;99.90;;;;;;4997476;28;20042;-78
2022/01/13 08:29:37;;;;;;;308.20;159.05;;;-1.60;99.90;;;;;;4997294;28;20049;-80
2022/01/13 08:32:05;;;;;;;323.92;165.63;;;-1.60;99.90;;;;;;4995972;28;20100;-79
2022/01/13 08:34:33;;;;;;;317.73;167.00;;;-1.60;99.90;;;;;;4997818;28;20047;-81
2022/01/13 08:37:00;;;;;;;317.38;167.25;;;-1.50;99.90;;;;;;4997806;28;20038;-78
2022/01/13 08:39:30;;;;;;;328.25;182.82;;;-1.40;99.90;;;;;;4997733;28;20050;-79
2022/01/13 08:41:57;;;;;;;315.80;168.48;;;-1.40;99.90;;;;;;4997485;28;20042;-79
2022/01/13 08:44:25;;;;;;;316.23;167.90;;;-1.40;99.90;;;;;;4997286;28;20487;-80
2022/01/13 08:46:53;;;;;;;313.52;166.52;;;-1.30;99.90;;;;;;4996193;28;20077;-81
2022/01/13 08:49:20;;;;;;;295.88;155.82;;;-1.20;99.90;;;;;;5000127;28;20451;-79
2022/01/13 08:51:48;;;;;;;308.65;159.98;;;-1.10;99.90;;;;;;4999235;28;20042;-79
2022/01/13 08:54:15;;;;;;;310.95;162.85;;;-1.00;99.90;;;;;;5000920;28;20065;-80
2022/01/13 08:56:45;;;;;;;325.83;170.48;;;-1.00;99.90;;;;;;5001340;28;20046;-82
2022/01/13 08:59:12;;;;;;;315.38;169.55;;;-0.90;99.90;;;;;;5002904;28;20557;-79
2022/01/13 09:01:40;;;;;;;321.52;167.57;;;-0.70;99.90;;;;;;5002640;28;20066;-82
2022/01/13 09:04:07;;;;;;;316.77;165.57;;;-0.70;99.90;;;;;;5017668;28;20138;-82
2022/01/13 09:06:35;;;;;;;320.63;170.35;;;-0.50;99.90;;;;;;5017891;28;20516;-82
2022/01/13 09:09:03;;;;;;;325.75;169.90;;;-0.30;99.90;;;;;;5002465;28;20049;-81
2022/01/13 09:11:31;;;;;;;318.33;167.15;;;-0.20;99.90;;;;;;5002848;28;20056;-81
2022/01/13 09:13:59;;;;;;;313.30;165.32;;;-0.10;99.90;;;;;;5002089;28;20121;-81
2022/01/13 09:16:41;;;;;;;305.50;159.13;;;0.00;99.90;;;;;;5000977;28;20042;-79
2022/01/13 09:19:09;;;;;;;221.73;111.72;;;-0.10;99.90;;;;;;5001536;28;20034;-82
2022/01/13 09:21:38;;;;;;;238.20;116.18;;;-0.10;99.90;;;;;;4999537;28;20038;-81
2022/01/13 09:24:07;;;;;;;236.18;118.00;;;-0.20;99.90;;;;;;4999604;28;20061;-79
2022/01/13 09:26:35;;;;;;;248.98;123.63;;;-0.30;99.90;;;;;;5001145;28;20525;-82
2022/01/13 09:29:05;;;;;;;231.63;114.43;;;-0.30;99.90;;;;;;4998812;28;20053;-79
2022/01/13 09:31:33;;;;;;;222.63;110.53;;;-0.20;99.90;;;;;;5000501;28;20069;-79
2022/01/13 09:34:01;;;;;;;179.57;90.43;;;-0.20;99.90;;;;;;5015148;28;20078;-79
2022/01/13 09:36:29;;;;;;;157.77;81.13;;;-0.30;99.90;;;;;;5015288;28;20493;-81
2022/01/13 09:38:57;;;;;;;131.43;69.50;;;-0.20;99.90;;;;;;4985617;28;20047;-79
2022/01/13 09:41:29;;;;;;;112.18;58.20;;;-0.10;99.90;;;;;;4981408;28;20066;-81
2022/01/13 09:43:57;;;;;;;104.07;53.88;;;0.00;99.90;;;;;;4982697;28;20046;-77
2022/01/13 09:46:27;;;;;;;114.70;60.17;;;0.10;99.90;;;;;;5003253;28;20048;-80
2022/01/13 09:48:56;;;;;;;119.82;57.85;;;0.10;99.90;;;;;;5007887;28;20559;-78
2022/01/13 09:51:25;;;;;;;130.73;63.10;;;0.10;99.90;;;;;;5011908;28;20046;-78
2022/01/13 09:53:53;;;;;;;152.25;68.03;;;0.10;99.90;;;;;;5009304;28;20076;-80
2022/01/13 09:56:21;;;;;;;159.32;69.65;;;0.20;99.90;;;;;;5004421;28;20177;-80
2022/01/13 09:58:48;;;;;;;165.23;76.13;;;0.30;99.90;;;;;;5007634;28;20052;-81
2022/01/13 10:01:16;;;;;;;178.63;79.07;;;0.50;99.90;;;;;;5022243;28;20413;-81
2022/01/13 10:03:46;;;;;;;166.65;78.07;;;0.60;99.90;;;;;;5003827;28;20050;-81
2022/01/13 10:06:15;;;;;;;160.27;75.53;;;0.60;99.90;;;;;;5009706;28;20027;-81
2022/01/13 10:08:45;;;;;;;148.75;71.40;;;0.50;99.90;;;;;;5009469;28;20042;-80
2022/01/13 10:11:35;;;;;;;126.70;62.42;;;0.40;99.90;;;;;;5008659;28;20050;-80
2022/01/13 10:14:05;;;;;;;124.28;63.13;;;0.50;99.90;;;;;;5003221;28;20038;-78
2022/01/13 10:16:31;;;;;;;141.23;69.97;;;0.60;99.90;;;;;;5009651;28;20060;-80
2022/01/13 10:19:00;;;;;;;129.93;64.07;;;0.60;99.90;;;;;;5006518;28;20408;-79
2022/01/13 10:21:28;;;;;;;122.38;61.15;;;0.60;99.90;;;;;;5006606;28;20501;-80
2022/01/13 10:24:09;;;;;;;109.43;55.88;;;0.70;99.90;;;;;;5003871;28;20046;-80
2022/01/13 10:26:37;;;;;;;108.47;55.60;;;0.80;99.90;;;;;;5000811;28;20161;-79
2022/01/13 10:29:07;;;;;;;124.40;60.78;;;0.90;99.90;;;;;;5001794;28;20477;-80
2022/01/13 10:31:49;;;;;;;136.40;68.97;;;1.10;99.90;;;;;;5002157;28;20045;-80
2022/01/13 10:34:21;;;;;;;110.93;56.10;;;1.10;99.90;;;;;;5000038;28;20047;-79
2022/01/13 10:37:10;;;;;;;113.45;56.85;;;1.20;99.90;;;;;;5000768;28;20472;-79
2022/01/13 10:39:50;;;;;;;93.95;51.75;;;1.20;99.90;;;;;;4999866;28;20149;-81
2022/01/13 10:42:45;;;;;;;106.45;54.58;;;1.30;99.90;;;;;;5001550;28;20046;-81
2022/01/13 10:45:17;;;;;;;111.93;57.50;;;1.30;99.90;;;;;;4999438;28;20070;-80
2022/01/13 10:47:50;;;;;;;111.20;56.40;;;1.50;99.90;;;;;;4997792;28;20050;-79
2022/01/13 10:50:21;;;;;;;113.18;57.15;;;1.60;99.90;;;;;;4999445;28;20043;-80
2022/01/13 10:52:50;;;;;;;116.53;58.95;;;1.60;99.90;;;;;;4997639;28;20138;-79
2022/01/13 10:55:19;;;;;;;122.45;61.05;;;1.60;99.90;;;;;;5001710;28;20046;-79
2022/01/13 10:57:48;;;;;;;118.68;60.10;;;1.50;99.90;;;;;;5002132;28;20050;-80
2022/01/13 11:00:21;;;;;;;114.03;58.58;;;1.60;99.90;;;;;;5007259;28;20054;-79
2022/01/13 11:02:59;;;;;;;112.60;59.75;;;1.70;99.90;;;;;;5007736;28;20050;-80
2022/01/13 11:05:28;;;;;;;107.32;57.88;;;1.90;99.90;;;;;;5007549;28;20113;-79
2022/01/13 11:07:57;;;;;;;86.95;47.55;;;2.00;99.90;;;;;;5010480;28;20105;-79
2022/01/13 11:10:24;;;;;;;84.68;46.10;;;1.90;99.90;;;;;;5009472;28;20073;-81
2022/01/13 11:12:57;;;;;;;86.10;47.20;;;2.00;99.90;;;;;;5011367;28;20073;-80
2022/01/13 11:15:25;;;;;;;90.75;48.55;;;2.00;99.90;;;;;;5003001;28;20069;-80
2022/01/13 11:17:55;;;;;;;95.68;50.35;;;1.80;99.90;;;;;;4999689;28;20141;-81
2022/01/13 11:20:23;;;;;;;86.97;46.33;;;2.00;99.90;;;;;;5000079;28;20560;-81
2022/01/13 11:22:56;;;;;;;83.80;44.53;;;2.10;99.90;;;;;;4998266;28;20046;-78
2022/01/13 11:25:26;;;;;;;78.70;44.97;;;2.00;99.90;;;;;;4997283;28;20074;-80
2022/01/13 11:27:55;;;;;;;88.65;44.70;;;1.90;99.90;;;;;;4997107;28;20093;-78
2022/01/13 11:30:25;;;;;;;80.68;45.65;;;2.00;99.90;;;;;;4997588;28;20125;-81
2022/01/13 11:32:52;;;;;;;84.70;44.53;;;2.10;99.90;;;;;;4996475;28;20046;-82
2022/01/13 11:35:23;;;;;;;78.57;42.85;;;2.30;99.90;;;;;;4997833;28;20054;-81
2022/01/13 11:37:53;;;;;;;82.18;43.78;;;2.10;99.90;;;;;;4996229;28;20504;-82
2022/01/13 11:40:48;;;;;;;75.45;41.95;;;2.20;99.90;;;;;;5015216;28;20038;-81
2022/01/13 11:43:32;;;;;;;75.60;40.00;;;2.10;99.90;;;;;;4979957;28;20058;-81
2022/01/13 11:46:13;;;;;;;81.85;39.80;;;2.10;99.90;;;;;;5009713;28;20097;-82
2022/01/13 11:48:53;;;;;;;80.50;41.00;;;2.10;99.90;;;;;;5007784;28;20050;-81
2022/01/13 11:51:21;;;;;;;77.90;41.95;;;2.20;99.90;;;;;;5009656;28;20076;-79
2022/01/13 11:53:57;;;;;;;72.20;37.88;;;2.10;99.90;;;;;;5008235;28;20041;-80
2022/01/13 11:56:25;;;;;;;72.25;37.85;;;1.90;99.90;;;;;;5012331;28;20064;-78
2022/01/13 11:58:55;;;;;;;74.80;39.03;;;1.80;99.90;;;;;;5005023;28;21986;-81
2022/01/13 12:01:24;;;;;;;74.20;38.95;;;1.80;99.90;;;;;;5003388;28;20046;-80
2022/01/13 12:03:54;;;;;;;69.88;36.88;;;1.70;99.90;;;;;;5010298;28;20128;-80
2022/01/13 12:06:40;;;;;;;70.60;38.58;;;1.80;99.90;;;;;;5011556;28;20065;-81
2022/01/13 12:09:11;;;;;;;79.25;39.85;;;1.90;99.90;;;;;;5012097;28;20054;-78
2022/01/13 12:11:45;;;;;;;69.97;36.72;;;1.80;99.90;;;;;;5013482;28;20053;-80
2022/01/13 12:14:37;;;;;;;71.80;39.17;;;1.90;99.90;;;;;;5011532;28;20054;-78
2022/01/13 12:17:10;;;;;;;73.18;37.00;;;1.90;99.90;;;;;;5012521;28;20057;-81
2022/01/13 12:19:41;;;;;;;72.88;36.75;;;2.00;99.90;;;;;;5013717;28;20082;-79
2022/01/13 12:22:13;;;;;;;70.80;37.35;;;2.10;99.90;;;;;;5013507;28;20110;-81
2022/01/13 12:24:48;;;;;;;81.03;41.30;;;2.10;99.90;;;;;;5013433;28;20046;-78
2022/01/13 12:27:17;;;;;;;72.00;38.13;;;2.20;99.90;;;;;;5013038;28;20138;-81
2022/01/13 12:29:47;;;;;;;70.18;36.65;;;2.20;99.90;;;;;;5020398;28;20041;-78
2022/01/13 12:32:17;;;;;;;63.97;34.20;;;2.10;99.90;;;;;;5005519;28;20058;-80
2022/01/13 12:34:52;;;;;;;61.80;33.38;;;2.20;99.90;;;;;;4992572;28;20054;-80
2022/01/13 12:37:28;;;;;;;58.10;30.40;;;2.20;99.90;;;;;;5010236;28;20057;-78
2022/01/13 12:40:00;;;;;;;;;;;2.10;99.90;;;;;;4997453;28;20066;-81
2022/01/13 12:42:33;;;;;;;62.55;32.75;;;2.00;99.90;;;;;;4996886;28;19921;-80
2022/01/13 12:47:46;;;;;;;60.35;33.78;;;2.10;99.90;;;;;;4998299;28;20490;-80
2022/01/13 12:50:16;;;;;;;64.45;34.63;;;2.20;99.90;;;;;;4998277;28;20045;-81